createdAt,value
2023-03-24T00:01:52.528Z,4.43
2023-03-24T00:04:18.998Z,6.05
2023-03-24T00:06:45.496Z,3.92
2023-03-24T00:09:11.886Z,7.95
2023-03-24T00:11:38.538Z,8.55
2023-03-24T00:14:04.969Z,5.85
2023-03-24T00:16:34.711Z,7.97
2023-03-24T00:19:01.371Z,5.78
2023-03-24T00:21:28.137Z,7.70
2023-03-24T00:23:55.981Z,4.05
2023-03-24T00:26:25.281Z,5.07
2023-03-24T00:28:52.491Z,8.45
2023-03-24T00:31:18.957Z,6.63
2023-03-24T00:33:51.325Z,6.75
2023-03-24T00:36:20.613Z,6.72
2023-03-24T00:38:48.434Z,4.60
2023-03-24T00:41:17.913Z,6.57
2023-03-24T00:43:44.440Z,5.18
2023-03-24T00:46:11.667Z,4.60
2023-03-24T00:48:38.414Z,4.13
2023-03-24T00:51:08.114Z,4.07
2023-03-24T00:53:44.041Z,5.97
2023-03-24T00:56:13.791Z,4.40
2023-03-24T00:58:40.163Z,5.32
2023-03-24T01:01:07.035Z,5.72
2023-03-24T01:03:43.261Z,4.53
2023-03-24T01:06:11.553Z,6.35
2023-03-24T01:08:38.716Z,4.10
2023-03-24T01:11:06.009Z,3.05
2023-03-24T01:13:34.317Z,3.40
2023-03-24T01:16:00.775Z,4.03
2023-03-24T01:18:27.831Z,4.75
2023-03-24T01:20:54.276Z,4.60
2023-03-24T01:23:24.187Z,6.90
2023-03-24T01:25:51.832Z,5.70
2023-03-24T01:28:21.791Z,4.82
2023-03-24T01:30:48.150Z,4.80
2023-03-24T01:33:14.697Z,4.18
2023-03-24T01:35:41.353Z,4.25
2023-03-24T01:38:09.251Z,3.53
2023-03-24T01:40:36.538Z,4.05
2023-03-24T01:43:03.269Z,5.13
2023-03-24T01:45:36.051Z,4.00
2023-03-24T01:48:04.272Z,4.90
2023-03-24T01:50:31.443Z,4.68
2023-03-24T01:52:58.358Z,6.07
2023-03-24T01:55:24.847Z,6.05
2023-03-24T01:57:53.425Z,3.22
2023-03-24T02:00:21.124Z,7.90
2023-03-24T02:02:59.460Z,3.28
2023-03-24T02:05:28.808Z,6.47
2023-03-24T02:07:58.181Z,2.53
2023-03-24T02:10:24.927Z,5.45
2023-03-24T02:12:51.464Z,4.93
2023-03-24T02:15:18.918Z,6.63
2023-03-24T02:18:21.039Z,8.02
2023-03-24T02:20:53.120Z,2.20
2023-03-24T02:23:22.728Z,5.05
2023-03-24T02:25:52.248Z,8.82
2023-03-24T02:28:24.287Z,8.93
2023-03-24T02:30:54.050Z,4.32
2023-03-24T02:33:32.841Z,8.57
2023-03-24T02:36:05.896Z,10.80
2023-03-24T02:38:34.414Z,5.60
2023-03-24T02:41:06.681Z,6.50
2023-03-24T02:43:33.027Z,8.55
2023-03-24T02:46:13.606Z,11.52
2023-03-24T02:48:56.304Z,12.10
2023-03-24T02:51:45.652Z,6.88
2023-03-24T02:54:41.585Z,12.00
2023-03-24T02:57:22.014Z,7.65
2023-03-24T02:59:52.461Z,9.63
2023-03-24T03:02:25.759Z,10.90
2023-03-24T03:04:54.883Z,13.85
2023-03-24T03:07:26.808Z,9.48
2023-03-24T03:09:57.191Z,9.30
2023-03-24T03:12:26.396Z,14.35
2023-03-24T03:15:00.346Z,10.02
2023-03-24T03:17:30.750Z,12.23
2023-03-24T03:19:59.205Z,9.95
2023-03-24T03:22:28.104Z,13.35
2023-03-24T03:24:56.197Z,10.82
2023-03-24T03:27:27.370Z,10.85
2023-03-24T03:29:57.695Z,15.98
2023-03-24T03:32:28.443Z,10.93
2023-03-24T03:35:14.142Z,13.95
2023-03-24T03:37:47.341Z,13.18
2023-03-24T03:40:40.378Z,8.90
2023-03-24T03:43:06.915Z,9.57
2023-03-24T03:45:33.937Z,14.43
2023-03-24T03:48:00.875Z,13.10
2023-03-24T03:50:27.757Z,18.05
2023-03-24T03:52:54.215Z,14.82
2023-03-24T03:55:22.825Z,15.63
2023-03-24T03:57:49.643Z,17.13
2023-03-24T04:00:17.267Z,11.00
2023-03-24T04:03:02.257Z,19.02
2023-03-24T04:05:47.413Z,14.73
2023-03-24T04:08:32.578Z,21.05
2023-03-24T04:11:11.481Z,19.15
2023-03-24T04:13:40.913Z,17.98
2023-03-24T04:16:22.619Z,13.98
2023-03-24T04:18:49.050Z,16.40
2023-03-24T04:21:33.958Z,18.45
2023-03-24T04:24:27.451Z,17.48
2023-03-24T04:26:55.731Z,20.58
2023-03-24T04:29:22.386Z,13.82
2023-03-24T04:31:53.409Z,14.45
2023-03-24T04:34:21.250Z,15.65
2023-03-24T04:37:04.336Z,14.23
2023-03-24T04:39:32.684Z,14.70
2023-03-24T04:42:01.777Z,14.68
2023-03-24T04:44:30.160Z,13.77
2023-03-24T04:46:57.761Z,18.92
2023-03-24T04:49:27.319Z,23.95
2023-03-24T04:51:53.902Z,23.60
2023-03-24T04:54:21.275Z,23.52
2023-03-24T04:56:52.732Z,24.00
2023-03-24T04:59:21.307Z,25.70
2023-03-24T05:01:50.471Z,18.20
2023-03-24T05:04:21.520Z,19.15
2023-03-24T05:06:49.647Z,17.45
2023-03-24T05:09:18.023Z,20.30
2023-03-24T05:11:44.980Z,21.48
2023-03-24T05:14:11.634Z,17.77
2023-03-24T05:16:38.371Z,26.33
2023-03-24T05:19:05.262Z,17.30
2023-03-24T05:21:33.340Z,15.23
2023-03-24T05:23:59.920Z,19.45
2023-03-24T05:26:30.413Z,29.45
2023-03-24T05:28:58.329Z,26.13
2023-03-24T05:31:24.729Z,21.98
2023-03-24T05:33:51.467Z,29.77
2023-03-24T05:36:17.870Z,20.08
2023-03-24T05:38:44.318Z,19.52
2023-03-24T05:41:10.656Z,18.60
2023-03-24T05:43:37.052Z,23.88
2023-03-24T05:46:03.554Z,19.83
2023-03-24T05:48:29.918Z,19.08
2023-03-24T05:50:56.529Z,18.65
2023-03-24T05:53:23.068Z,21.20
2023-03-24T05:55:53.693Z,18.75
2023-03-24T05:58:21.290Z,21.83
2023-03-24T06:00:47.704Z,13.10
2023-03-24T06:03:14.320Z,33.60
2023-03-24T06:05:41.028Z,19.20
2023-03-24T06:08:09.927Z,18.08
2023-03-24T06:10:36.957Z,18.77
2023-03-24T06:13:03.656Z,22.90
2023-03-24T06:15:30.791Z,19.08
2023-03-24T06:17:57.385Z,23.65
2023-03-24T06:20:23.882Z,16.40
2023-03-24T06:22:50.388Z,20.85
2023-03-24T06:25:17.999Z,20.27
2023-03-24T06:27:46.396Z,20.38
2023-03-24T06:30:16.434Z,20.55
2023-03-24T06:32:46.684Z,18.02
2023-03-24T06:35:17.239Z,19.77
2023-03-24T06:37:44.707Z,15.00
2023-03-24T06:40:14.144Z,20.92
2023-03-24T06:42:40.960Z,21.27
2023-03-24T06:45:08.049Z,20.98
2023-03-24T06:47:34.512Z,31.85
2023-03-24T06:50:00.977Z,19.35
2023-03-24T06:52:27.967Z,14.90
2023-03-24T06:54:54.694Z,20.13
2023-03-24T06:57:21.849Z,25.38
2023-03-24T06:59:49.219Z,17.88
2023-03-24T07:02:15.934Z,31.42
2023-03-24T07:04:42.756Z,20.20
2023-03-24T07:07:35.823Z,18.10
2023-03-24T07:09:56.567Z,24.35
2023-03-24T07:12:23.070Z,14.48
2023-03-24T07:14:50.930Z,16.27
2023-03-24T07:17:17.370Z,20.90
2023-03-24T07:19:45.557Z,20.35
2023-03-24T07:22:12.393Z,16.17
2023-03-24T07:24:38.759Z,12.82
2023-03-24T07:27:05.581Z,18.30
2023-03-24T07:29:32.263Z,20.60
2023-03-24T07:32:01.095Z,16.55
2023-03-24T07:34:27.980Z,17.67
2023-03-24T07:36:54.377Z,20.20
2023-03-24T07:39:21.035Z,20.80
2023-03-24T07:41:47.496Z,20.23
2023-03-24T07:44:16.274Z,21.48
2023-03-24T07:46:42.671Z,18.00
2023-03-24T07:49:18.941Z,17.95
2023-03-24T07:51:46.371Z,21.77
2023-03-24T07:54:12.971Z,17.45
2023-03-24T07:56:39.413Z,15.27
2023-03-24T07:59:06.026Z,12.02
2023-03-24T08:01:38.849Z,20.30
2023-03-24T08:04:06.946Z,14.88
2023-03-24T08:06:33.474Z,15.77
2023-03-24T08:09:02.477Z,12.20
2023-03-24T08:11:28.906Z,16.45
2023-03-24T08:13:55.429Z,17.25
2023-03-24T08:16:21.953Z,19.98
2023-03-24T08:18:48.781Z,12.07
2023-03-24T08:21:15.545Z,14.85
2023-03-24T08:23:41.945Z,13.95
2023-03-24T08:26:10.715Z,15.38
2023-03-24T08:28:37.636Z,12.13
2023-03-24T08:31:04.757Z,11.00
2023-03-24T08:33:31.088Z,12.20
2023-03-24T08:35:58.036Z,15.38
2023-03-24T08:38:30.531Z,9.38
2023-03-24T08:41:02.248Z,9.85
2023-03-24T08:43:29.546Z,15.15
2023-03-24T08:45:56.879Z,12.75
2023-03-24T08:48:23.423Z,11.65
2023-03-24T08:50:50.397Z,10.60
2023-03-24T08:53:16.810Z,8.60
2023-03-24T08:55:44.406Z,15.45
2023-03-24T08:58:14.792Z,12.48
2023-03-24T09:00:41.380Z,14.05
2023-03-24T09:03:07.914Z,9.93
2023-03-24T09:05:44.427Z,19.17
2023-03-24T09:08:12.356Z,14.52
2023-03-24T09:10:39.139Z,15.68
2023-03-24T09:13:05.702Z,14.25
2023-03-24T09:15:32.329Z,15.32
2023-03-24T09:17:58.950Z,14.60
2023-03-24T09:20:25.656Z,16.13
2023-03-24T09:22:52.434Z,14.63
2023-03-24T09:25:20.663Z,17.15
2023-03-24T09:27:47.319Z,17.17
2023-03-24T09:30:15.597Z,9.35
2023-03-24T09:32:42.307Z,13.98
2023-03-24T09:35:09.082Z,17.52
2023-03-24T09:37:36.279Z,16.67
2023-03-24T09:40:02.748Z,17.50
2023-03-24T09:42:32.431Z,17.75
2023-03-24T09:44:59.725Z,17.83
2023-03-24T09:47:31.664Z,13.73
2023-03-24T09:50:00.343Z,14.30
2023-03-24T09:52:34.109Z,11.35
2023-03-24T09:55:03.548Z,18.40
2023-03-24T09:57:36.179Z,14.98
2023-03-24T10:00:09.072Z,19.77
2023-03-24T10:02:35.805Z,16.98
2023-03-24T10:05:02.348Z,17.48
2023-03-24T10:07:39.607Z,14.20
2023-03-24T10:10:15.950Z,16.40
2023-03-24T10:12:48.116Z,17.58
2023-03-24T10:15:37.218Z,14.07
2023-03-24T10:18:22.935Z,13.18
2023-03-24T10:20:55.325Z,13.70
2023-03-24T10:23:27.867Z,15.07
2023-03-24T10:26:00.248Z,16.55
2023-03-24T10:28:35.951Z,13.18
2023-03-24T10:31:05.194Z,18.35
2023-03-24T10:33:33.478Z,17.85
2023-03-24T10:36:08.049Z,15.25
2023-03-24T10:38:34.681Z,19.45
2023-03-24T10:41:01.649Z,16.48
2023-03-24T10:43:29.153Z,15.68
2023-03-24T10:45:56.855Z,11.98
2023-03-24T10:48:42.287Z,19.63
2023-03-24T10:51:15.892Z,13.73
2023-03-24T10:53:42.985Z,18.05
2023-03-24T10:56:13.585Z,13.90
2023-03-24T10:58:40.650Z,15.27
2023-03-24T11:01:27.566Z,13.32
2023-03-24T11:03:59.712Z,9.50
2023-03-24T11:06:26.619Z,13.75
2023-03-24T11:09:29.697Z,18.90
2023-03-24T11:11:58.419Z,13.73
2023-03-24T11:14:26.479Z,16.00
2023-03-24T11:16:54.195Z,12.45
2023-03-24T11:19:22.794Z,11.55
2023-03-24T11:21:51.663Z,12.32
2023-03-24T11:24:19.416Z,13.95
2023-03-24T11:26:49.807Z,8.88
2023-03-24T11:29:19.427Z,10.77
2023-03-24T11:31:54.245Z,10.55
2023-03-24T11:34:25.564Z,7.07
2023-03-24T11:36:53.267Z,4.50
2023-03-24T11:39:19.791Z,7.97
2023-03-24T11:42:04.529Z,8.88
2023-03-24T11:44:32.485Z,12.75
2023-03-24T11:47:00.729Z,9.30
2023-03-24T11:49:29.231Z,7.60
2023-03-24T11:51:56.073Z,7.60
2023-03-24T11:54:29.013Z,11.15
2023-03-24T11:57:01.166Z,11.43
2023-03-24T11:59:36.997Z,10.52
2023-03-24T12:09:32.606Z,13.82
2023-03-24T12:12:08.100Z,12.13
2023-03-24T12:14:35.622Z,13.93
2023-03-24T12:17:15.421Z,15.65
2023-03-24T12:20:00.396Z,15.90
2023-03-24T12:22:32.523Z,8.38
2023-03-24T12:25:10.896Z,16.92
2023-03-24T12:27:46.342Z,10.23
2023-03-24T12:30:15.783Z,9.57
2023-03-24T12:32:43.058Z,16.08
2023-03-24T12:35:28.131Z,9.98
2023-03-24T12:37:54.472Z,16.13
2023-03-24T12:40:39.529Z,15.07
2023-03-24T12:43:05.898Z,15.15
2023-03-24T12:45:49.489Z,13.60
2023-03-24T12:48:16.096Z,15.13
2023-03-24T12:50:42.441Z,11.00
2023-03-24T12:53:14.378Z,13.80
2023-03-24T12:55:46.889Z,8.90
2023-03-24T12:58:19.359Z,9.70
2023-03-24T13:00:57.912Z,7.82
2023-03-24T13:03:30.273Z,16.35
2023-03-24T13:06:07.267Z,13.25
2023-03-24T13:08:42.251Z,10.30
2023-03-24T13:11:21.860Z,15.13
2023-03-24T13:13:57.963Z,13.98
2023-03-24T13:16:27.831Z,5.68
2023-03-24T13:18:59.900Z,11.02
2023-03-24T13:21:27.836Z,10.02
2023-03-24T13:23:57.367Z,6.22
2023-03-24T13:26:34.172Z,7.25
2023-03-24T13:29:21.080Z,3.22
2023-03-24T13:31:51.634Z,8.75
2023-03-24T13:34:38.324Z,11.57
2023-03-24T13:37:04.656Z,8.68
2023-03-24T13:39:31.522Z,6.20
2023-03-24T13:41:59.018Z,11.77
2023-03-24T13:44:28.306Z,8.80
2023-03-24T13:47:06.820Z,12.25
2023-03-24T13:49:33.377Z,12.05
2023-03-24T13:52:03.047Z,12.57
2023-03-24T13:54:29.554Z,8.45
2023-03-24T13:57:14.465Z,15.80
2023-03-24T14:00:09.052Z,11.30
2023-03-24T14:02:55.368Z,4.25
2023-03-24T14:05:24.751Z,8.13
2023-03-24T14:07:51.975Z,8.85
2023-03-24T14:10:20.721Z,13.85
2023-03-24T14:13:13.604Z,15.45
2023-03-24T14:15:46.669Z,10.68
2023-03-24T14:18:25.647Z,10.73
2023-03-24T14:20:58.082Z,10.57
2023-03-24T14:23:45.693Z,12.98
2023-03-24T14:26:22.439Z,10.73
2023-03-24T14:28:50.357Z,9.75
2023-03-24T14:31:16.784Z,8.32
2023-03-24T14:33:45.351Z,8.80
2023-03-24T14:36:17.200Z,11.32
2023-03-24T14:38:44.553Z,21.23
2023-03-24T14:41:16.086Z,11.10
2023-03-24T14:43:42.395Z,12.25
2023-03-24T14:46:21.176Z,11.85
2023-03-24T14:48:50.654Z,17.35
2023-03-24T14:51:26.337Z,15.82
2023-03-24T14:53:56.810Z,20.95
2023-03-24T14:56:23.468Z,13.63
2023-03-24T14:58:53.748Z,8.55
2023-03-24T15:01:20.496Z,13.85
2023-03-24T15:03:56.466Z,13.52
2023-03-24T15:06:23.667Z,10.40
2023-03-24T15:08:51.346Z,14.18
2023-03-24T15:11:19.878Z,13.45
2023-03-24T15:13:57.696Z,12.05
2023-03-24T15:16:34.386Z,13.48
2023-03-24T15:19:07.666Z,11.30
2023-03-24T15:21:36.163Z,9.68
2023-03-24T15:24:04.383Z,9.35
2023-03-24T15:26:32.677Z,8.30
2023-03-24T15:29:00.374Z,11.32
2023-03-24T15:31:30.469Z,12.32
2023-03-24T15:34:04.689Z,9.60
2023-03-24T15:36:37.516Z,11.70
2023-03-24T15:39:17.240Z,8.85
2023-03-24T15:41:43.888Z,12.60
2023-03-24T15:44:14.018Z,16.38
2023-03-24T15:46:43.425Z,13.23
2023-03-24T15:49:16.975Z,9.48
2023-03-24T15:51:50.990Z,10.10
2023-03-24T15:54:21.667Z,14.13
2023-03-24T15:57:01.587Z,9.10
2023-03-24T15:59:36.506Z,10.55
2023-03-24T16:02:11.221Z,15.83
2023-03-24T16:04:38.375Z,15.77
2023-03-24T16:07:05.201Z,12.70
2023-03-24T16:09:40.803Z,14.80
2023-03-24T16:12:10.979Z,13.43
2023-03-24T16:14:38.769Z,10.65
2023-03-24T16:17:05.306Z,7.93
2023-03-24T16:19:32.252Z,11.10
2023-03-24T16:21:58.663Z,10.85
2023-03-24T16:24:25.094Z,12.05
2023-03-24T16:26:51.492Z,9.43
2023-03-24T16:29:22.312Z,9.20
2023-03-24T16:31:53.569Z,8.93
2023-03-24T16:34:21.254Z,7.18
2023-03-24T16:36:48.426Z,6.57
2023-03-24T16:39:16.651Z,9.60
2023-03-24T16:41:43.077Z,7.38
2023-03-24T16:44:09.932Z,9.23
2023-03-24T16:46:36.921Z,8.52
2023-03-24T16:49:04.809Z,9.82
2023-03-24T16:51:31.317Z,12.23
2023-03-24T16:53:58.100Z,8.93
2023-03-24T16:56:24.848Z,9.18
2023-03-24T16:58:56.296Z,6.72
2023-03-24T17:01:37.196Z,8.70
2023-03-24T17:04:05.051Z,12.05
2023-03-24T17:06:32.777Z,9.93
2023-03-24T17:08:59.511Z,7.57
2023-03-24T17:11:27.163Z,8.05
2023-03-24T17:13:54.398Z,6.95
2023-03-24T17:16:20.867Z,5.72
2023-03-24T17:18:47.335Z,6.32
2023-03-24T17:21:14.989Z,6.28
2023-03-24T17:23:41.485Z,8.80
2023-03-24T17:26:07.898Z,7.47
2023-03-24T17:28:34.237Z,13.65
2023-03-24T17:31:00.574Z,19.92
2023-03-24T17:33:27.032Z,11.77
2023-03-24T17:35:53.845Z,21.58
2023-03-24T17:38:20.574Z,11.95
2023-03-24T17:40:47.205Z,17.30
2023-03-24T17:43:13.890Z,8.98
2023-03-24T17:45:40.976Z,9.63
2023-03-24T17:48:07.433Z,7.55
2023-03-24T17:50:33.829Z,13.20
2023-03-24T17:53:03.297Z,11.55
2023-03-24T17:55:29.695Z,12.45
2023-03-24T17:57:56.031Z,6.65
2023-03-24T18:00:22.434Z,10.00
2023-03-24T18:02:48.878Z,10.32
2023-03-24T18:05:15.842Z,6.57
2023-03-24T18:07:43.175Z,7.53
2023-03-24T18:10:09.689Z,13.82
2023-03-24T18:12:37.060Z,10.25
2023-03-24T18:15:05.242Z,15.93
2023-03-24T18:17:31.889Z,13.32
2023-03-24T18:20:00.657Z,12.20
2023-03-24T18:22:28.227Z,6.18
2023-03-24T18:24:54.700Z,8.82
2023-03-24T18:27:21.165Z,11.20
2023-03-24T18:29:47.590Z,8.50
2023-03-24T18:32:14.636Z,11.60
2023-03-24T18:34:44.829Z,15.23
2023-03-24T18:37:12.048Z,6.95
2023-03-24T18:39:40.577Z,8.18
2023-03-24T18:42:07.333Z,10.13
2023-03-24T18:44:33.828Z,10.35
2023-03-24T18:47:00.410Z,8.07
2023-03-24T18:49:27.013Z,7.75
2023-03-24T18:51:53.460Z,13.73
2023-03-24T18:54:19.838Z,6.43
2023-03-24T18:56:46.363Z,8.75
2023-03-24T18:59:12.867Z,9.70
2023-03-24T19:01:39.276Z,7.72
2023-03-24T19:04:05.997Z,11.80
2023-03-24T19:06:35.012Z,11.48
2023-03-24T19:09:01.587Z,7.43
2023-03-24T19:11:28.278Z,10.82
2023-03-24T19:13:57.933Z,12.20
2023-03-24T19:16:24.569Z,11.85
2023-03-24T19:18:51.148Z,11.23
2023-03-24T19:21:17.976Z,8.00
2023-03-24T19:23:44.913Z,17.60
2023-03-24T19:26:11.565Z,12.20
2023-03-24T19:28:37.976Z,9.25
2023-03-24T19:31:09.649Z,12.00
2023-03-24T19:33:37.113Z,12.65
2023-03-24T19:36:04.105Z,11.27
2023-03-24T19:38:30.585Z,9.77
2023-03-24T19:40:57.276Z,7.75
2023-03-24T19:43:24.360Z,9.82
2023-03-24T19:45:51.596Z,11.55
2023-03-24T19:48:18.104Z,13.63
2023-03-24T19:50:45.927Z,6.57
2023-03-24T19:53:13.186Z,10.15
2023-03-24T19:55:39.599Z,6.78
2023-03-24T19:58:06.358Z,7.22
2023-03-24T20:00:32.759Z,6.30
2023-03-24T20:02:59.187Z,9.23
2023-03-24T20:05:25.783Z,9.38
2023-03-24T20:07:55.352Z,11.07
2023-03-24T20:10:22.047Z,9.32
2023-03-24T20:12:48.469Z,14.40
2023-03-24T20:15:15.451Z,15.43
2023-03-24T20:17:42.478Z,11.13
2023-03-24T20:20:10.830Z,8.65
2023-03-24T20:22:39.016Z,9.00
2023-03-24T20:25:05.569Z,10.50
2023-03-24T20:27:32.084Z,9.32
2023-03-24T20:29:58.521Z,9.23
2023-03-24T20:32:24.887Z,8.05
2023-03-24T20:34:52.256Z,9.18
2023-03-24T20:37:18.706Z,5.70
2023-03-24T20:39:45.532Z,15.20
2023-03-24T20:42:12.041Z,9.23
2023-03-24T20:44:38.640Z,12.65
2023-03-24T20:47:05.332Z,13.73
2023-03-24T20:49:32.145Z,12.50
2023-03-24T20:51:58.585Z,13.02
2023-03-24T20:54:24.983Z,15.15
2023-03-24T20:56:52.486Z,26.90
2023-03-24T20:59:19.246Z,13.15
2023-03-24T21:01:48.566Z,12.82
2023-03-24T21:04:16.268Z,12.48
2023-03-24T21:06:43.247Z,9.00
2023-03-24T21:09:10.245Z,19.05
2023-03-24T21:11:36.678Z,14.60
2023-03-24T21:14:03.233Z,16.83
2023-03-24T21:16:33.951Z,8.82
2023-03-24T21:19:01.743Z,11.18
2023-03-24T21:21:28.429Z,11.50
2023-03-24T21:23:57.064Z,11.65
2023-03-24T21:26:23.638Z,11.35
2023-03-24T21:28:50.034Z,8.43
2023-03-24T21:31:29.508Z,13.43
2023-03-24T21:33:56.794Z,10.88
2023-03-24T21:36:24.453Z,9.68
2023-03-24T21:38:51.687Z,12.82
2023-03-24T21:41:18.760Z,9.18
2023-03-24T21:43:51.161Z,13.15
2023-03-24T21:46:21.327Z,10.20
2023-03-24T21:48:55.492Z,12.85
2023-03-24T21:51:26.253Z,13.68
2023-03-24T21:53:55.729Z,11.52
2023-03-24T21:56:23.971Z,13.98
2023-03-24T21:58:52.312Z,10.13
2023-03-24T22:01:19.909Z,11.75
2023-03-24T22:03:46.637Z,13.18
2023-03-24T22:06:13.151Z,12.70
2023-03-24T22:08:43.332Z,13.52
2023-03-24T22:11:10.606Z,19.40
2023-03-24T22:13:39.053Z,15.50
2023-03-24T22:16:06.263Z,12.98
2023-03-24T22:18:33.618Z,11.35
2023-03-24T22:21:03.067Z,13.60
2023-03-24T22:23:33.031Z,15.57
2023-03-24T22:26:01.732Z,11.00
2023-03-24T22:28:29.012Z,15.40
2023-03-24T22:31:06.570Z,18.48
2023-03-24T22:33:33.234Z,15.10
2023-03-24T22:36:00.459Z,8.13
2023-03-24T22:38:27.280Z,10.65
2023-03-24T22:40:57.711Z,11.63
2023-03-24T22:43:24.358Z,13.60
2023-03-24T22:45:51.068Z,10.15
2023-03-24T22:48:17.671Z,18.90
2023-03-24T22:50:44.133Z,19.50
2023-03-24T22:53:10.782Z,14.75
2023-03-24T22:55:37.223Z,13.02
2023-03-24T22:58:04.551Z,17.02
2023-03-24T23:00:31.607Z,11.40
2023-03-24T23:02:58.171Z,16.25
2023-03-24T23:05:24.918Z,14.20
2023-03-24T23:07:51.434Z,12.68
2023-03-24T23:10:17.996Z,15.38
2023-03-24T23:12:44.375Z,14.45
2023-03-24T23:15:13.959Z,13.85
2023-03-24T23:17:42.444Z,16.95
2023-03-24T23:20:10.017Z,21.15
2023-03-24T23:22:38.321Z,12.65
2023-03-24T23:25:05.759Z,14.25
2023-03-24T23:27:36.089Z,21.83
2023-03-24T23:30:03.351Z,15.77
2023-03-24T23:32:31.968Z,18.92
2023-03-24T23:34:58.866Z,13.52
2023-03-24T23:37:25.334Z,12.88
2023-03-24T23:39:51.728Z,15.73
2023-03-24T23:42:18.332Z,13.38
2023-03-24T23:44:44.653Z,13.55
2023-03-24T23:47:11.276Z,12.38
2023-03-24T23:49:37.657Z,18.33
2023-03-24T23:52:04.050Z,21.67
2023-03-24T23:54:31.036Z,17.75
2023-03-24T23:56:57.561Z,12.05
2023-03-24T23:59:23.898Z,12.65
